aviador You're here:

KMCN Decoded Metar

MACON in GA, USA
Report Time2017-07-27 21:53:00
UTC Time2017-07-27 22:54:16
Flight Rules vfr VFR
Wind200° at 04 kt
W.Decomp.*RWY 23: 3.6 kt HW 1.8 kt LCW
RWY 13: 1.2 kt HW 3.8 kt RCW
W.Rank200° ranks 27
Current wind is below 200° avg. (5.4)
Visibility9999 m
Phenomena:N/A
Clouds:Few 044 Hf
Expected CloudBase > 4,400 ft AGL from Temp-Dew spread
CeilingNone
Temp33°C (ISA +19)
Dew Point22°C (52% RH)
Heat Index36.9°C
QNH1014 hPa
Density Alt2,805 ft
Elevation358 ft
Report Wrong Elevation
Raw Report
METAR KMCN 272153Z 20004KT 10SM FEW044 33/22 A2994 RMK AO2 SLP135 T03280217=

Extra information for KMCN:More info

Metar Taf Metar & Taf Last 4 Metars F.Rules Stats Wind Profile Meteogram Temp Stats Airport Information Weather charts Add Link Nearby VenuesMetar ALERT Operation Metar Decoded Social comments

AIRNAV info for KMCN